sensor_id;sensor_type;location;lat;lon;timestamp;temperature;humidity
25668;DHT22;18003;-33.830;151.202;2023-05-10T00:02:13;15.50;99.90
25668;DHT22;18003;-33.830;151.202;2023-05-10T00:04:42;15.50;99.90
25668;DHT22;18003;-33.830;151.202;2023-05-10T00:07:13;15.60;99.90
25668;DHT22;18003;-33.830;151.202;2023-05-10T00:09:44;15.50;99.90
25668;DHT22;18003;-33.830;151.202;2023-05-10T00:12:14;15.60;99.90
25668;DHT22;18003;-33.830;151.202;2023-05-10T00:14:44;15.60;99.90
25668;DHT22;18003;-33.830;151.202;2023-05-10T00:17:14;15.60;99.90
25668;DHT22;18003;-33.830;151.202;2023-05-10T00:19:44;15.60;99.90
25668;DHT22;18003;-33.830;151.202;2023-05-10T00:22:14;15.60;99.90
25668;DHT22;18003;-33.830;151.202;2023-05-10T00:24:44;15.60;99.90
25668;DHT22;18003;-33.830;151.202;2023-05-10T00:27:14;15.60;99.90
25668;DHT22;18003;-33.830;151.202;2023-05-10T00:29:44;15.60;99.90
25668;DHT22;18003;-33.830;151.202;2023-05-10T00:32:14;15.70;99.90
25668;DHT22;18003;-33.830;151.202;2023-05-10T00:34:44;15.70;99.90
25668;DHT22;18003;-33.830;151.202;2023-05-10T00:37:14;15.70;99.90
25668;DHT22;18003;-33.830;151.202;2023-05-10T00:39:44;15.70;99.90
25668;DHT22;18003;-33.830;151.202;2023-05-10T00:42:14;15.70;99.90
25668;DHT22;18003;-33.830;151.202;2023-05-10T00:44:45;15.70;99.90
25668;DHT22;18003;-33.830;151.202;2023-05-10T00:47:15;15.70;99.90
25668;DHT22;18003;-33.830;151.202;2023-05-10T00:49:45;15.80;99.90
25668;DHT22;18003;-33.830;151.202;2023-05-10T00:52:15;15.80;99.90
25668;DHT22;18003;-33.830;151.202;2023-05-10T00:54:45;15.80;99.90
25668;DHT22;18003;-33.830;151.202;2023-05-10T00:57:16;15.80;99.90
25668;DHT22;18003;-33.830;151.202;2023-05-10T00:59:46;15.80;99.90
25668;DHT22;18003;-33.830;151.202;2023-05-10T01:02:16;15.80;99.90
25668;DHT22;18003;-33.830;151.202;2023-05-10T01:04:46;15.80;99.90
25668;DHT22;18003;-33.830;151.202;2023-05-10T01:07:16;15.90;99.90
25668;DHT22;18003;-33.830;151.202;2023-05-10T01:09:46;15.80;99.90
25668;DHT22;18003;-33.830;151.202;2023-05-10T01:12:16;15.90;99.90
25668;DHT22;18003;-33.830;151.202;2023-05-10T01:14:46;15.90;99.90
25668;DHT22;18003;-33.830;151.202;2023-05-10T01:17:16;15.90;99.90
25668;DHT22;18003;-33.830;151.202;2023-05-10T01:19:46;15.90;99.90
25668;DHT22;18003;-33.830;151.202;2023-05-10T01:25:29;16.00;99.90
25668;DHT22;18003;-33.830;151.202;2023-05-10T01:33:36;16.00;99.90
25668;DHT22;18003;-33.830;151.202;2023-05-10T01:36:35;16.00;99.90
25668;DHT22;18003;-33.830;151.202;2023-05-10T01:42:03;16.00;99.90
25668;DHT22;18003;-33.830;151.202;2023-05-10T01:44:37;16.00;99.90
25668;DHT22;18003;-33.830;151.202;2023-05-10T01:50:02;16.10;99.90
25668;DHT22;18003;-33.830;151.202;2023-05-10T01:52:36;16.10;99.90
25668;DHT22;18003;-33.830;151.202;2023-05-10T01:55:06;16.10;99.90
25668;DHT22;18003;-33.830;151.202;2023-05-10T01:57:40;16.00;99.90
25668;DHT22;18003;-33.830;151.202;2023-05-10T02:00:13;16.10;99.90
25668;DHT22;18003;-33.830;151.202;2023-05-10T02:02:45;16.10;99.90
25668;DHT22;18003;-33.830;151.202;2023-05-10T02:05:16;16.10;99.90
25668;DHT22;18003;-33.830;151.202;2023-05-10T02:07:47;16.20;99.90
25668;DHT22;18003;-33.830;151.202;2023-05-10T02:10:18;16.20;99.90
25668;DHT22;18003;-33.830;151.202;2023-05-10T02:12:49;16.20;99.90
25668;DHT22;18003;-33.830;151.202;2023-05-10T02:15:20;16.20;99.90
25668;DHT22;18003;-33.830;151.202;2023-05-10T02:17:50;16.20;99.90
25668;DHT22;18003;-33.830;151.202;2023-05-10T02:20:21;16.20;99.90
25668;DHT22;18003;-33.830;151.202;2023-05-10T02:22:54;16.20;99.90
25668;DHT22;18003;-33.830;151.202;2023-05-10T02:25:22;16.20;99.90
25668;DHT22;18003;-33.830;151.202;2023-05-10T02:27:54;16.20;99.90
25668;DHT22;18003;-33.830;151.202;2023-05-10T02:30:25;16.20;99.90
25668;DHT22;18003;-33.830;151.202;2023-05-10T02:32:55;16.20;99.90
25668;DHT22;18003;-33.830;151.202;2023-05-10T02:35:27;16.20;99.90
25668;DHT22;18003;-33.830;151.202;2023-05-10T02:37:58;16.20;99.90
25668;DHT22;18003;-33.830;151.202;2023-05-10T02:40:29;16.20;99.90
25668;DHT22;18003;-33.830;151.202;2023-05-10T02:43:00;16.20;99.90
25668;DHT22;18003;-33.830;151.202;2023-05-10T02:45:32;16.20;99.90
25668;DHT22;18003;-33.830;151.202;2023-05-10T02:48:04;16.20;99.90
25668;DHT22;18003;-33.830;151.202;2023-05-10T02:50:35;16.20;99.90
25668;DHT22;18003;-33.830;151.202;2023-05-10T02:53:09;16.30;99.90
25668;DHT22;18003;-33.830;151.202;2023-05-10T02:55:40;16.30;99.90
25668;DHT22;18003;-33.830;151.202;2023-05-10T02:58:10;16.30;99.90
25668;DHT22;18003;-33.830;151.202;2023-05-10T03:00:40;16.30;99.90
25668;DHT22;18003;-33.830;151.202;2023-05-10T03:03:10;16.30;99.90
25668;DHT22;18003;-33.830;151.202;2023-05-10T03:05:40;16.30;99.90
25668;DHT22;18003;-33.830;151.202;2023-05-10T03:08:10;16.30;99.90
25668;DHT22;18003;-33.830;151.202;2023-05-10T03:10:45;16.40;99.90
25668;DHT22;18003;-33.830;151.202;2023-05-10T03:13:32;16.40;99.90
25668;DHT22;18003;-33.830;151.202;2023-05-10T03:16:10;16.40;99.90
25668;DHT22;18003;-33.830;151.202;2023-05-10T03:21:28;16.40;99.90
25668;DHT22;18003;-33.830;151.202;2023-05-10T03:26:28;16.50;99.90
25668;DHT22;18003;-33.830;151.202;2023-05-10T03:28:58;16.50;99.90
25668;DHT22;18003;-33.830;151.202;2023-05-10T03:31:29;16.50;99.90
25668;DHT22;18003;-33.830;151.202;2023-05-10T03:33:59;16.60;99.90
25668;DHT22;18003;-33.830;151.202;2023-05-10T03:36:29;16.50;99.90
25668;DHT22;18003;-33.830;151.202;2023-05-10T03:38:59;16.50;99.90
25668;DHT22;18003;-33.830;151.202;2023-05-10T03:41:29;16.50;99.90
25668;DHT22;18003;-33.830;151.202;2023-05-10T03:43:59;16.60;99.90
25668;DHT22;18003;-33.830;151.202;2023-05-10T03:46:29;16.60;99.90
25668;DHT22;18003;-33.830;151.202;2023-05-10T03:48:59;16.60;99.90
25668;DHT22;18003;-33.830;151.202;2023-05-10T03:51:30;16.60;99.90
25668;DHT22;18003;-33.830;151.202;2023-05-10T03:54:00;16.60;99.90
25668;DHT22;18003;-33.830;151.202;2023-05-10T03:56:30;16.60;99.90
25668;DHT22;18003;-33.830;151.202;2023-05-10T03:59:00;16.60;99.90
25668;DHT22;18003;-33.830;151.202;2023-05-10T04:01:31;16.60;99.90
25668;DHT22;18003;-33.830;151.202;2023-05-10T04:04:01;16.60;99.90
25668;DHT22;18003;-33.830;151.202;2023-05-10T04:06:31;16.60;99.90
25668;DHT22;18003;-33.830;151.202;2023-05-10T04:09:01;16.60;99.90
25668;DHT22;18003;-33.830;151.202;2023-05-10T04:11:32;16.60;99.90
25668;DHT22;18003;-33.830;151.202;2023-05-10T04:14:02;16.70;99.90
25668;DHT22;18003;-33.830;151.202;2023-05-10T04:16:32;16.60;99.90
25668;DHT22;18003;-33.830;151.202;2023-05-10T04:19:02;16.60;99.90
25668;DHT22;18003;-33.830;151.202;2023-05-10T04:21:32;16.60;99.90
25668;DHT22;18003;-33.830;151.202;2023-05-10T04:24:02;16.60;99.90
25668;DHT22;18003;-33.830;151.202;2023-05-10T04:26:32;16.60;99.90
25668;DHT22;18003;-33.830;151.202;2023-05-10T04:29:02;16.60;99.90
25668;DHT22;18003;-33.830;151.202;2023-05-10T04:31:32;16.60;99.90
25668;DHT22;18003;-33.830;151.202;2023-05-10T04:34:03;16.60;99.90
25668;DHT22;18003;-33.830;151.202;2023-05-10T04:36:34;16.60;99.90
25668;DHT22;18003;-33.830;151.202;2023-05-10T04:39:05;16.60;99.90
25668;DHT22;18003;-33.830;151.202;2023-05-10T04:41:35;16.60;99.90
25668;DHT22;18003;-33.830;151.202;2023-05-10T04:44:05;16.60;99.90
25668;DHT22;18003;-33.830;151.202;2023-05-10T04:46:35;16.50;99.90
25668;DHT22;18003;-33.830;151.202;2023-05-10T04:49:05;16.60;99.90
25668;DHT22;18003;-33.830;151.202;2023-05-10T04:51:36;16.60;99.90
25668;DHT22;18003;-33.830;151.202;2023-05-10T04:54:06;16.60;99.90
25668;DHT22;18003;-33.830;151.202;2023-05-10T04:56:36;16.60;99.90
25668;DHT22;18003;-33.830;151.202;2023-05-10T04:59:06;16.60;99.90
25668;DHT22;18003;-33.830;151.202;2023-05-10T05:01:36;16.60;99.90
25668;DHT22;18003;-33.830;151.202;2023-05-10T05:04:06;16.60;99.90
25668;DHT22;18003;-33.830;151.202;2023-05-10T05:06:36;16.60;99.90
25668;DHT22;18003;-33.830;151.202;2023-05-10T05:09:06;16.60;99.90
25668;DHT22;18003;-33.830;151.202;2023-05-10T05:11:36;16.60;99.90
25668;DHT22;18003;-33.830;151.202;2023-05-10T05:14:07;16.60;99.90
25668;DHT22;18003;-33.830;151.202;2023-05-10T05:16:36;16.60;99.90
25668;DHT22;18003;-33.830;151.202;2023-05-10T05:19:07;16.60;99.90
25668;DHT22;18003;-33.830;151.202;2023-05-10T05:21:36;16.60;99.90
25668;DHT22;18003;-33.830;151.202;2023-05-10T05:24:07;16.60;99.90
25668;DHT22;18003;-33.830;151.202;2023-05-10T05:26:38;16.60;99.90
25668;DHT22;18003;-33.830;151.202;2023-05-10T05:29:08;16.60;99.90
25668;DHT22;18003;-33.830;151.202;2023-05-10T05:31:38;16.60;99.90
25668;DHT22;18003;-33.830;151.202;2023-05-10T05:34:08;16.60;99.90
25668;DHT22;18003;-33.830;151.202;2023-05-10T05:36:38;16.60;99.90
25668;DHT22;18003;-33.830;151.202;2023-05-10T05:39:08;16.60;99.90
25668;DHT22;18003;-33.830;151.202;2023-05-10T05:41:38;16.60;99.90
25668;DHT22;18003;-33.830;151.202;2023-05-10T05:44:08;16.60;99.90
25668;DHT22;18003;-33.830;151.202;2023-05-10T05:46:38;16.60;99.90
25668;DHT22;18003;-33.830;151.202;2023-05-10T05:49:09;16.60;99.90
25668;DHT22;18003;-33.830;151.202;2023-05-10T05:51:40;16.70;99.90
25668;DHT22;18003;-33.830;151.202;2023-05-10T05:54:11;16.60;99.90
25668;DHT22;18003;-33.830;151.202;2023-05-10T05:56:41;16.60;99.90
25668;DHT22;18003;-33.830;151.202;2023-05-10T05:59:12;16.70;99.90
25668;DHT22;18003;-33.830;151.202;2023-05-10T06:01:42;16.60;99.90
25668;DHT22;18003;-33.830;151.202;2023-05-10T06:04:12;16.70;99.90
25668;DHT22;18003;-33.830;151.202;2023-05-10T06:06:42;16.60;99.90
25668;DHT22;18003;-33.830;151.202;2023-05-10T06:09:12;16.60;99.90
25668;DHT22;18003;-33.830;151.202;2023-05-10T06:11:42;16.60;99.90
25668;DHT22;18003;-33.830;151.202;2023-05-10T06:14:14;16.60;99.90
25668;DHT22;18003;-33.830;151.202;2023-05-10T06:16:44;16.60;99.90
25668;DHT22;18003;-33.830;151.202;2023-05-10T06:19:17;16.60;99.90
25668;DHT22;18003;-33.830;151.202;2023-05-10T06:21:47;16.60;99.90
25668;DHT22;18003;-33.830;151.202;2023-05-10T06:24:17;16.60;99.90
25668;DHT22;18003;-33.830;151.202;2023-05-10T06:26:47;16.60;99.90
25668;DHT22;18003;-33.830;151.202;2023-05-10T06:29:18;16.60;99.90
25668;DHT22;18003;-33.830;151.202;2023-05-10T06:31:47;16.60;99.90
25668;DHT22;18003;-33.830;151.202;2023-05-10T06:34:17;16.60;99.90
25668;DHT22;18003;-33.830;151.202;2023-05-10T06:36:47;16.60;99.90
25668;DHT22;18003;-33.830;151.202;2023-05-10T06:39:17;16.60;99.90
25668;DHT22;18003;-33.830;151.202;2023-05-10T06:41:47;16.60;99.90
25668;DHT22;18003;-33.830;151.202;2023-05-10T06:44:17;16.60;99.90
25668;DHT22;18003;-33.830;151.202;2023-05-10T06:46:47;16.60;99.90
25668;DHT22;18003;-33.830;151.202;2023-05-10T06:49:18;16.60;99.90
25668;DHT22;18003;-33.830;151.202;2023-05-10T06:51:48;16.60;99.90
25668;DHT22;18003;-33.830;151.202;2023-05-10T06:54:18;16.60;99.90
25668;DHT22;18003;-33.830;151.202;2023-05-10T06:56:50;16.60;99.90
25668;DHT22;18003;-33.830;151.202;2023-05-10T06:59:20;16.60;99.90
25668;DHT22;18003;-33.830;151.202;2023-05-10T07:01:51;16.60;99.90
25668;DHT22;18003;-33.830;151.202;2023-05-10T07:04:22;16.60;99.90
25668;DHT22;18003;-33.830;151.202;2023-05-10T07:06:52;16.60;99.90
25668;DHT22;18003;-33.830;151.202;2023-05-10T07:09:21;16.60;99.90
25668;DHT22;18003;-33.830;151.202;2023-05-10T07:11:52;16.60;99.90
25668;DHT22;18003;-33.830;151.202;2023-05-10T07:14:22;16.60;99.90
25668;DHT22;18003;-33.830;151.202;2023-05-10T07:16:52;16.60;99.90
25668;DHT22;18003;-33.830;151.202;2023-05-10T07:19:23;16.60;99.90
25668;DHT22;18003;-33.830;151.202;2023-05-10T07:21:53;16.60;99.90
25668;DHT22;18003;-33.830;151.202;2023-05-10T07:26:59;16.60;99.90
25668;DHT22;18003;-33.830;151.202;2023-05-10T07:29:29;16.60;99.90
25668;DHT22;18003;-33.830;151.202;2023-05-10T07:31:59;16.60;99.90
25668;DHT22;18003;-33.830;151.202;2023-05-10T07:34:29;16.60;99.90
25668;DHT22;18003;-33.830;151.202;2023-05-10T07:37:00;16.60;99.90
25668;DHT22;18003;-33.830;151.202;2023-05-10T07:39:30;16.60;99.90
25668;DHT22;18003;-33.830;151.202;2023-05-10T07:42:00;16.60;99.90
25668;DHT22;18003;-33.830;151.202;2023-05-10T07:44:31;16.60;99.90
25668;DHT22;18003;-33.830;151.202;2023-05-10T07:47:01;16.60;99.90
25668;DHT22;18003;-33.830;151.202;2023-05-10T07:49:31;16.60;99.90
25668;DHT22;18003;-33.830;151.202;2023-05-10T07:52:01;16.50;99.90
25668;DHT22;18003;-33.830;151.202;2023-05-10T07:54:31;16.60;99.90
25668;DHT22;18003;-33.830;151.202;2023-05-10T07:57:01;16.60;99.90
25668;DHT22;18003;-33.830;151.202;2023-05-10T07:59:32;16.60;99.90
25668;DHT22;18003;-33.830;151.202;2023-05-10T08:02:02;16.50;99.90
25668;DHT22;18003;-33.830;151.202;2023-05-10T08:04:32;16.60;99.90
25668;DHT22;18003;-33.830;151.202;2023-05-10T08:07:02;16.50;99.90
25668;DHT22;18003;-33.830;151.202;2023-05-10T08:09:32;16.50;99.90
25668;DHT22;18003;-33.830;151.202;2023-05-10T08:12:02;16.50;99.90
25668;DHT22;18003;-33.830;151.202;2023-05-10T08:14:32;16.50;99.90
25668;DHT22;18003;-33.830;151.202;2023-05-10T08:17:03;16.50;99.90
25668;DHT22;18003;-33.830;151.202;2023-05-10T08:19:33;16.50;99.90
25668;DHT22;18003;-33.830;151.202;2023-05-10T08:22:03;16.50;99.90
25668;DHT22;18003;-33.830;151.202;2023-05-10T08:24:33;16.40;99.90
25668;DHT22;18003;-33.830;151.202;2023-05-10T08:27:09;16.50;99.90
25668;DHT22;18003;-33.830;151.202;2023-05-10T08:29:35;16.50;99.90
25668;DHT22;18003;-33.830;151.202;2023-05-10T08:32:05;16.50;99.90
25668;DHT22;18003;-33.830;151.202;2023-05-10T08:34:35;16.40;99.90
25668;DHT22;18003;-33.830;151.202;2023-05-10T08:37:05;16.40;99.90
25668;DHT22;18003;-33.830;151.202;2023-05-10T08:39:36;16.40;99.90
25668;DHT22;18003;-33.830;151.202;2023-05-10T08:42:06;16.50;99.90
25668;DHT22;18003;-33.830;151.202;2023-05-10T08:44:37;16.40;99.90
25668;DHT22;18003;-33.830;151.202;2023-05-10T08:47:07;16.40;99.90
25668;DHT22;18003;-33.830;151.202;2023-05-10T08:49:38;16.40;99.90
25668;DHT22;18003;-33.830;151.202;2023-05-10T08:52:09;16.40;99.90
25668;DHT22;18003;-33.830;151.202;2023-05-10T08:54:40;16.40;99.90
25668;DHT22;18003;-33.830;151.202;2023-05-10T08:57:11;16.30;99.90
25668;DHT22;18003;-33.830;151.202;2023-05-10T08:59:41;16.40;99.90
25668;DHT22;18003;-33.830;151.202;2023-05-10T09:02:13;16.40;99.90
25668;DHT22;18003;-33.830;151.202;2023-05-10T09:04:43;16.30;99.90
25668;DHT22;18003;-33.830;151.202;2023-05-10T09:07:13;16.30;99.90
25668;DHT22;18003;-33.830;151.202;2023-05-10T09:09:44;16.30;99.90
25668;DHT22;18003;-33.830;151.202;2023-05-10T09:12:15;16.30;99.90
25668;DHT22;18003;-33.830;151.202;2023-05-10T09:14:45;16.30;99.90
25668;DHT22;18003;-33.830;151.202;2023-05-10T09:17:16;16.30;99.90
25668;DHT22;18003;-33.830;151.202;2023-05-10T09:19:46;16.30;99.90
25668;DHT22;18003;-33.830;151.202;2023-05-10T09:22:16;16.30;99.90
25668;DHT22;18003;-33.830;151.202;2023-05-10T09:24:49;16.30;99.90
25668;DHT22;18003;-33.830;151.202;2023-05-10T09:27:17;16.30;99.90
25668;DHT22;18003;-33.830;151.202;2023-05-10T09:29:49;16.30;99.90
25668;DHT22;18003;-33.830;151.202;2023-05-10T09:32:20;16.30;99.90
25668;DHT22;18003;-33.830;151.202;2023-05-10T09:34:50;16.20;99.90
25668;DHT22;18003;-33.830;151.202;2023-05-10T09:37:28;16.20;99.90
25668;DHT22;18003;-33.830;151.202;2023-05-10T09:39:51;16.20;99.90
25668;DHT22;18003;-33.830;151.202;2023-05-10T09:42:22;16.20;99.90
25668;DHT22;18003;-33.830;151.202;2023-05-10T09:44:52;16.20;99.90
25668;DHT22;18003;-33.830;151.202;2023-05-10T09:47:22;16.20;99.90
25668;DHT22;18003;-33.830;151.202;2023-05-10T09:49:53;16.20;99.90
25668;DHT22;18003;-33.830;151.202;2023-05-10T09:52:27;16.20;99.90
25668;DHT22;18003;-33.830;151.202;2023-05-10T09:54:57;16.20;99.90
25668;DHT22;18003;-33.830;151.202;2023-05-10T09:57:27;16.10;99.90
25668;DHT22;18003;-33.830;151.202;2023-05-10T09:59:57;16.20;99.90
25668;DHT22;18003;-33.830;151.202;2023-05-10T10:02:29;16.10;99.90
25668;DHT22;18003;-33.830;151.202;2023-05-10T10:05:01;16.10;99.90
25668;DHT22;18003;-33.830;151.202;2023-05-10T10:07:31;16.10;99.90
25668;DHT22;18003;-33.830;151.202;2023-05-10T10:10:03;16.10;99.90
25668;DHT22;18003;-33.830;151.202;2023-05-10T10:12:33;16.10;99.90
25668;DHT22;18003;-33.830;151.202;2023-05-10T10:15:04;16.10;99.90
25668;DHT22;18003;-33.830;151.202;2023-05-10T10:17:35;16.10;99.90
25668;DHT22;18003;-33.830;151.202;2023-05-10T10:20:12;16.10;99.90
25668;DHT22;18003;-33.830;151.202;2023-05-10T10:22:36;16.10;99.90
25668;DHT22;18003;-33.830;151.202;2023-05-10T10:25:07;16.10;99.90
25668;DHT22;18003;-33.830;151.202;2023-05-10T10:33:10;16.00;99.90
25668;DHT22;18003;-33.830;151.202;2023-05-10T10:35:36;16.00;99.90
25668;DHT22;18003;-33.830;151.202;2023-05-10T10:38:07;16.00;99.90
25668;DHT22;18003;-33.830;151.202;2023-05-10T10:40:37;16.00;99.90
25668;DHT22;18003;-33.830;151.202;2023-05-10T10:43:27;15.90;99.90
25668;DHT22;18003;-33.830;151.202;2023-05-10T10:46:18;16.00;99.90
25668;DHT22;18003;-33.830;151.202;2023-05-10T10:49:08;16.00;99.90
25668;DHT22;18003;-33.830;151.202;2023-05-10T10:51:25;16.00;99.90
25668;DHT22;18003;-33.830;151.202;2023-05-10T10:53:58;16.00;99.90
25668;DHT22;18003;-33.830;151.202;2023-05-10T10:56:27;15.90;99.90
25668;DHT22;18003;-33.830;151.202;2023-05-10T10:58:58;15.90;99.90
25668;DHT22;18003;-33.830;151.202;2023-05-10T11:01:33;15.90;99.90
25668;DHT22;18003;-33.830;151.202;2023-05-10T11:06:39;15.90;99.90
25668;DHT22;18003;-33.830;151.202;2023-05-10T11:09:12;15.90;99.90
25668;DHT22;18003;-33.830;151.202;2023-05-10T11:11:55;15.90;99.90
25668;DHT22;18003;-33.830;151.202;2023-05-10T11:14:26;15.90;99.90
25668;DHT22;18003;-33.830;151.202;2023-05-10T11:16:56;15.90;99.90
25668;DHT22;18003;-33.830;151.202;2023-05-10T11:19:29;15.90;99.90
25668;DHT22;18003;-33.830;151.202;2023-05-10T11:24:37;15.80;99.90
25668;DHT22;18003;-33.830;151.202;2023-05-10T11:27:08;15.80;99.90
25668;DHT22;18003;-33.830;151.202;2023-05-10T11:29:38;15.80;99.90
25668;DHT22;18003;-33.830;151.202;2023-05-10T11:32:08;15.80;99.90
25668;DHT22;18003;-33.830;151.202;2023-05-10T11:34:39;15.80;99.90
25668;DHT22;18003;-33.830;151.202;2023-05-10T11:37:09;15.80;99.90
25668;DHT22;18003;-33.830;151.202;2023-05-10T11:39:45;15.80;99.90
25668;DHT22;18003;-33.830;151.202;2023-05-10T11:42:11;15.80;99.90
25668;DHT22;18003;-33.830;151.202;2023-05-10T11:44:41;15.80;99.90
25668;DHT22;18003;-33.830;151.202;2023-05-10T11:47:13;15.80;99.90
25668;DHT22;18003;-33.830;151.202;2023-05-10T11:49:43;15.80;99.90
25668;DHT22;18003;-33.830;151.202;2023-05-10T11:52:14;15.80;99.90
25668;DHT22;18003;-33.830;151.202;2023-05-10T11:54:53;15.80;99.90
25668;DHT22;18003;-33.830;151.202;2023-05-10T11:57:25;15.80;99.90
25668;DHT22;18003;-33.830;151.202;2023-05-10T11:59:57;15.80;99.90
25668;DHT22;18003;-33.830;151.202;2023-05-10T12:02:28;15.80;99.90
25668;DHT22;18003;-33.830;151.202;2023-05-10T12:04:58;15.70;99.90
25668;DHT22;18003;-33.830;151.202;2023-05-10T12:07:29;15.70;99.90
25668;DHT22;18003;-33.830;151.202;2023-05-10T12:10:08;15.70;99.90
25668;DHT22;18003;-33.830;151.202;2023-05-10T12:12:48;15.70;99.90
25668;DHT22;18003;-33.830;151.202;2023-05-10T12:15:17;15.70;99.90
25668;DHT22;18003;-33.830;151.202;2023-05-10T12:17:48;15.70;99.90
25668;DHT22;18003;-33.830;151.202;2023-05-10T12:20:22;15.60;99.90
25668;DHT22;18003;-33.830;151.202;2023-05-10T12:22:54;15.70;99.90
25668;DHT22;18003;-33.830;151.202;2023-05-10T12:25:29;15.70;99.90
25668;DHT22;18003;-33.830;151.202;2023-05-10T12:27:57;15.60;99.90
25668;DHT22;18003;-33.830;151.202;2023-05-10T12:30:32;15.60;99.90
25668;DHT22;18003;-33.830;151.202;2023-05-10T12:33:07;15.60;99.90
25668;DHT22;18003;-33.830;151.202;2023-05-10T12:35:38;15.60;99.90
25668;DHT22;18003;-33.830;151.202;2023-05-10T12:38:22;15.60;99.90
25668;DHT22;18003;-33.830;151.202;2023-05-10T12:40:37;15.60;99.90
25668;DHT22;18003;-33.830;151.202;2023-05-10T12:43:07;15.60;99.90
25668;DHT22;18003;-33.830;151.202;2023-05-10T12:45:37;15.50;99.90
25668;DHT22;18003;-33.830;151.202;2023-05-10T12:48:07;15.60;99.90
25668;DHT22;18003;-33.830;151.202;2023-05-10T12:50:37;15.60;99.90
25668;DHT22;18003;-33.830;151.202;2023-05-10T12:53:07;15.60;99.90
25668;DHT22;18003;-33.830;151.202;2023-05-10T12:55:36;15.50;99.90
25668;DHT22;18003;-33.830;151.202;2023-05-10T12:58:06;15.50;99.90
25668;DHT22;18003;-33.830;151.202;2023-05-10T13:00:36;15.50;99.90
25668;DHT22;18003;-33.830;151.202;2023-05-10T13:03:06;15.50;99.90
25668;DHT22;18003;-33.830;151.202;2023-05-10T13:05:36;15.50;99.90
25668;DHT22;18003;-33.830;151.202;2023-05-10T13:08:07;15.50;99.90
25668;DHT22;18003;-33.830;151.202;2023-05-10T13:10:37;15.50;99.90
25668;DHT22;18003;-33.830;151.202;2023-05-10T13:13:07;15.50;99.90
25668;DHT22;18003;-33.830;151.202;2023-05-10T13:15:37;15.50;99.90
25668;DHT22;18003;-33.830;151.202;2023-05-10T13:18:07;15.40;99.90
25668;DHT22;18003;-33.830;151.202;2023-05-10T13:20:38;15.50;99.90
25668;DHT22;18003;-33.830;151.202;2023-05-10T13:23:08;15.40;99.90
25668;DHT22;18003;-33.830;151.202;2023-05-10T13:25:38;15.40;99.90
25668;DHT22;18003;-33.830;151.202;2023-05-10T13:28:07;15.40;99.90
25668;DHT22;18003;-33.830;151.202;2023-05-10T13:30:37;15.50;99.90
25668;DHT22;18003;-33.830;151.202;2023-05-10T13:33:07;15.40;99.90
25668;DHT22;18003;-33.830;151.202;2023-05-10T13:35:38;15.50;99.90
25668;DHT22;18003;-33.830;151.202;2023-05-10T13:38:08;15.40;99.90
25668;DHT22;18003;-33.830;151.202;2023-05-10T13:40:38;15.40;99.90
25668;DHT22;18003;-33.830;151.202;2023-05-10T13:43:08;15.40;99.90
25668;DHT22;18003;-33.830;151.202;2023-05-10T13:45:38;15.40;99.90
25668;DHT22;18003;-33.830;151.202;2023-05-10T13:48:08;15.40;99.90
25668;DHT22;18003;-33.830;151.202;2023-05-10T13:50:38;15.40;99.90
25668;DHT22;18003;-33.830;151.202;2023-05-10T13:53:08;15.40;99.90
25668;DHT22;18003;-33.830;151.202;2023-05-10T13:55:38;15.40;99.90
25668;DHT22;18003;-33.830;151.202;2023-05-10T13:58:08;15.40;99.90
25668;DHT22;18003;-33.830;151.202;2023-05-10T14:00:38;15.40;99.90
25668;DHT22;18003;-33.830;151.202;2023-05-10T14:03:08;15.30;99.90
25668;DHT22;18003;-33.830;151.202;2023-05-10T14:05:39;15.30;99.90
25668;DHT22;18003;-33.830;151.202;2023-05-10T14:08:09;15.30;99.90
25668;DHT22;18003;-33.830;151.202;2023-05-10T14:10:39;15.30;99.90
25668;DHT22;18003;-33.830;151.202;2023-05-10T14:13:09;15.30;99.90
25668;DHT22;18003;-33.830;151.202;2023-05-10T14:15:40;15.30;99.90
25668;DHT22;18003;-33.830;151.202;2023-05-10T14:18:10;15.30;99.90
25668;DHT22;18003;-33.830;151.202;2023-05-10T14:20:42;15.30;99.90
25668;DHT22;18003;-33.830;151.202;2023-05-10T14:23:12;15.30;99.90
25668;DHT22;18003;-33.830;151.202;2023-05-10T14:25:42;15.30;99.90
25668;DHT22;18003;-33.830;151.202;2023-05-10T14:28:12;15.30;99.90
25668;DHT22;18003;-33.830;151.202;2023-05-10T14:30:42;15.30;99.90
25668;DHT22;18003;-33.830;151.202;2023-05-10T14:33:12;15.30;99.90
25668;DHT22;18003;-33.830;151.202;2023-05-10T14:35:42;15.30;99.90
25668;DHT22;18003;-33.830;151.202;2023-05-10T14:38:13;15.30;99.90
25668;DHT22;18003;-33.830;151.202;2023-05-10T14:40:44;15.20;99.90
25668;DHT22;18003;-33.830;151.202;2023-05-10T14:43:14;15.20;99.90
25668;DHT22;18003;-33.830;151.202;2023-05-10T14:45:44;15.30;99.90
25668;DHT22;18003;-33.830;151.202;2023-05-10T14:48:14;15.20;99.90
25668;DHT22;18003;-33.830;151.202;2023-05-10T14:50:45;15.30;99.90
25668;DHT22;18003;-33.830;151.202;2023-05-10T14:53:16;15.20;99.90
25668;DHT22;18003;-33.830;151.202;2023-05-10T14:55:46;15.20;99.90
25668;DHT22;18003;-33.830;151.202;2023-05-10T14:58:16;15.30;99.90
25668;DHT22;18003;-33.830;151.202;2023-05-10T15:00:46;15.30;99.90
25668;DHT22;18003;-33.830;151.202;2023-05-10T15:03:16;15.30;99.90
25668;DHT22;18003;-33.830;151.202;2023-05-10T15:05:46;15.30;99.90
25668;DHT22;18003;-33.830;151.202;2023-05-10T15:08:17;15.30;99.90
25668;DHT22;18003;-33.830;151.202;2023-05-10T15:10:47;15.30;99.90
25668;DHT22;18003;-33.830;151.202;2023-05-10T15:13:22;15.20;99.90
25668;DHT22;18003;-33.830;151.202;2023-05-10T15:15:52;15.20;99.90
25668;DHT22;18003;-33.830;151.202;2023-05-10T15:18:22;15.20;99.90
25668;DHT22;18003;-33.830;151.202;2023-05-10T15:20:52;15.20;99.90
25668;DHT22;18003;-33.830;151.202;2023-05-10T15:23:23;15.30;99.90
25668;DHT22;18003;-33.830;151.202;2023-05-10T15:25:53;15.30;99.90
25668;DHT22;18003;-33.830;151.202;2023-05-10T15:28:23;15.30;99.90
25668;DHT22;18003;-33.830;151.202;2023-05-10T15:30:53;15.30;99.90
25668;DHT22;18003;-33.830;151.202;2023-05-10T15:33:23;15.30;99.90
25668;DHT22;18003;-33.830;151.202;2023-05-10T15:35:53;15.20;99.90
25668;DHT22;18003;-33.830;151.202;2023-05-10T15:38:23;15.30;99.90
25668;DHT22;18003;-33.830;151.202;2023-05-10T15:41:00;15.30;99.90
25668;DHT22;18003;-33.830;151.202;2023-05-10T15:43:26;15.30;99.90